createdAt,value
2023-03-07T00:01:57.993Z,100.00
2023-03-07T00:04:01.531Z,100.00
2023-03-07T00:06:07.471Z,100.00
2023-03-07T00:08:10.546Z,100.00
2023-03-07T00:10:13.323Z,100.00
2023-03-07T00:12:16.065Z,100.00
2023-03-07T00:14:18.868Z,100.00
2023-03-07T00:16:25.031Z,100.00
2023-03-07T00:18:27.818Z,100.00
2023-03-07T00:20:30.763Z,100.00
2023-03-07T00:22:33.590Z,100.00
2023-03-07T00:24:36.311Z,100.00
2023-03-07T00:26:39.755Z,100.00
2023-03-07T00:28:42.606Z,100.00
2023-03-07T00:30:45.327Z,100.00
2023-03-07T00:32:49.383Z,100.00
2023-03-07T00:34:54.227Z,100.00
2023-03-07T00:36:56.959Z,100.00
2023-03-07T00:38:59.871Z,100.00
2023-03-07T00:41:04.738Z,100.00
2023-03-07T00:43:08.201Z,100.00
2023-03-07T00:45:13.532Z,100.00
2023-03-07T00:47:16.252Z,100.00
2023-03-07T00:49:21.102Z,100.00
2023-03-07T00:51:25.041Z,100.00
2023-03-07T00:53:28.408Z,100.00
2023-03-07T00:55:31.255Z,100.00
2023-03-07T00:57:34.062Z,100.00
2023-03-07T00:59:36.837Z,100.00
2023-03-07T01:01:39.681Z,100.00
2023-03-07T01:03:42.995Z,100.00
2023-03-07T01:05:47.510Z,100.00
2023-03-07T01:07:50.309Z,100.00
2023-03-07T01:09:53.237Z,100.00
2023-03-07T01:11:56.183Z,100.00
2023-03-07T01:14:00.755Z,100.00
2023-03-07T01:16:12.238Z,100.00
2023-03-07T01:18:16.443Z,100.00
2023-03-07T01:20:19.596Z,100.00
2023-03-07T01:22:23.822Z,100.00
2023-03-07T01:24:27.788Z,100.00
2023-03-07T01:26:32.994Z,100.00
2023-03-07T01:28:36.109Z,100.00
2023-03-07T01:30:39.301Z,100.00
2023-03-07T01:32:42.241Z,100.00
2023-03-07T01:34:45.429Z,100.00
2023-03-07T01:36:48.318Z,100.00
2023-03-07T01:38:55.938Z,100.00
2023-03-07T01:40:58.669Z,100.00
2023-03-07T01:43:24.174Z,100.00
2023-03-07T01:46:19.566Z,100.00
2023-03-07T01:48:26.077Z,100.00
2023-03-07T01:50:29.177Z,100.00
2023-03-07T01:52:35.482Z,100.00
2023-03-07T01:54:50.370Z,100.00
2023-03-07T01:56:55.948Z,100.00
2023-03-07T01:58:59.070Z,100.00
2023-03-07T02:01:01.900Z,100.00
2023-03-07T02:03:12.964Z,100.00
2023-03-07T02:05:23.835Z,100.00
2023-03-07T02:07:30.290Z,100.00
2023-03-07T02:09:35.370Z,100.00
2023-03-07T02:11:41.376Z,100.00
2023-03-07T02:13:44.624Z,100.00
2023-03-07T02:15:50.280Z,100.00
2023-03-07T02:17:53.656Z,100.00
2023-03-07T02:20:10.673Z,100.00
2023-03-07T02:22:17.405Z,100.00
2023-03-07T02:24:27.565Z,100.00
2023-03-07T02:26:44.612Z,100.00
2023-03-07T02:28:49.053Z,100.00
2023-03-07T02:30:57.598Z,100.00
2023-03-07T02:33:02.362Z,100.00
2023-03-07T02:35:14.027Z,100.00
2023-03-07T02:37:20.179Z,100.00
2023-03-07T02:39:29.972Z,100.00
2023-03-07T02:41:35.895Z,100.00
2023-03-07T02:43:46.003Z,100.00
2023-03-07T02:45:48.927Z,100.00
2023-03-07T02:47:51.730Z,100.00
2023-03-07T02:49:55.062Z,100.00
2023-03-07T02:52:00.538Z,100.00
2023-03-07T02:54:03.925Z,100.00
2023-03-07T02:56:07.352Z,100.00
2023-03-07T02:58:10.257Z,100.00
2023-03-07T03:00:15.249Z,100.00
2023-03-07T03:02:18.242Z,100.00
2023-03-07T03:04:21.995Z,100.00
2023-03-07T03:06:24.799Z,100.00
2023-03-07T03:08:27.639Z,100.00
2023-03-07T03:10:30.441Z,100.00
2023-03-07T03:12:35.068Z,100.00
2023-03-07T03:14:38.277Z,100.00
2023-03-07T03:16:42.491Z,100.00
2023-03-07T03:18:45.304Z,100.00
2023-03-07T03:20:48.025Z,100.00
2023-03-07T03:22:52.841Z,100.00
2023-03-07T03:24:56.359Z,100.00
2023-03-07T03:26:59.576Z,100.00
2023-03-07T03:29:05.129Z,100.00
2023-03-07T03:31:10.590Z,100.00
2023-03-07T03:33:16.822Z,100.00
2023-03-07T03:35:19.684Z,100.00
2023-03-07T03:37:23.720Z,100.00
2023-03-07T03:39:26.910Z,100.00
2023-03-07T03:41:33.777Z,100.00
2023-03-07T03:43:36.925Z,100.00
2023-03-07T03:45:40.154Z,100.00
2023-03-07T03:47:43.562Z,100.00
2023-03-07T03:49:47.744Z,100.00
2023-03-07T03:51:50.498Z,100.00
2023-03-07T03:53:54.736Z,100.00
2023-03-07T03:56:02.971Z,100.00
2023-03-07T03:58:06.653Z,100.00
2023-03-07T04:00:14.404Z,100.00
2023-03-07T04:02:17.505Z,100.00
2023-03-07T04:04:20.655Z,100.00
2023-03-07T04:06:27.102Z,100.00
2023-03-07T04:08:29.965Z,100.00
2023-03-07T04:10:32.938Z,100.00
2023-03-07T04:12:35.907Z,100.00
2023-03-07T04:14:39.793Z,100.00
2023-03-07T04:16:42.539Z,100.00
2023-03-07T04:18:45.466Z,100.00
2023-03-07T04:20:48.880Z,100.00
2023-03-07T04:22:53.027Z,100.00
2023-03-07T04:24:55.805Z,100.00
2023-03-07T04:26:58.766Z,100.00
2023-03-07T04:29:01.946Z,100.00
2023-03-07T04:31:07.928Z,100.00
2023-03-07T04:33:10.745Z,100.00
2023-03-07T04:35:13.556Z,100.00
2023-03-07T04:37:16.291Z,100.00
2023-03-07T04:39:20.756Z,100.00
2023-03-07T04:41:26.513Z,100.00
2023-03-07T04:43:34.518Z,100.00
2023-03-07T04:45:38.048Z,100.00
2023-03-07T04:47:41.013Z,100.00
2023-03-07T04:49:43.913Z,100.00
2023-03-07T04:51:47.117Z,100.00
2023-03-07T04:53:52.016Z,100.00
2023-03-07T04:56:00.036Z,100.00
2023-03-07T04:58:03.336Z,100.00
2023-03-07T05:00:09.237Z,100.00
2023-03-07T05:02:14.787Z,100.00
2023-03-07T05:04:18.306Z,100.00
2023-03-07T05:06:21.246Z,100.00
2023-03-07T05:08:26.282Z,100.00
2023-03-07T05:10:30.608Z,100.00
2023-03-07T05:12:34.762Z,100.00
2023-03-07T05:14:37.538Z,100.00
2023-03-07T05:16:40.345Z,100.00
2023-03-07T05:18:43.097Z,100.00
2023-03-07T05:20:45.822Z,100.00
2023-03-07T05:22:48.772Z,100.00
2023-03-07T05:24:51.830Z,100.00
2023-03-07T05:26:54.712Z,100.00
2023-03-07T05:28:59.037Z,100.00
2023-03-07T05:31:02.075Z,100.00
2023-03-07T05:33:05.366Z,100.00
2023-03-07T05:35:10.897Z,100.00
2023-03-07T05:37:13.986Z,100.00
2023-03-07T05:39:16.773Z,100.00
2023-03-07T05:41:19.467Z,100.00
2023-03-07T05:43:22.205Z,100.00
2023-03-07T05:45:28.129Z,100.00
2023-03-07T05:47:31.355Z,100.00
2023-03-07T05:49:34.325Z,100.00
2023-03-07T05:51:37.306Z,100.00
2023-03-07T05:53:40.314Z,100.00
2023-03-07T05:55:43.067Z,100.00
2023-03-07T05:57:45.893Z,100.00
2023-03-07T05:59:48.638Z,100.00
2023-03-07T06:01:52.909Z,100.00
2023-03-07T06:03:56.368Z,100.00
2023-03-07T06:05:59.378Z,100.00
2023-03-07T06:08:02.193Z,100.00
2023-03-07T06:10:05.430Z,100.00
2023-03-07T06:12:10.460Z,100.00
2023-03-07T06:14:13.160Z,100.00
2023-03-07T06:16:16.525Z,100.00
2023-03-07T06:18:21.187Z,100.00
2023-03-07T06:20:24.034Z,100.00
2023-03-07T06:22:31.785Z,100.00
2023-03-07T06:24:34.650Z,100.00
2023-03-07T06:26:37.417Z,100.00
2023-03-07T06:28:40.556Z,100.00
2023-03-07T06:30:43.327Z,100.00
2023-03-07T06:32:46.093Z,100.00
2023-03-07T06:34:50.281Z,100.00
2023-03-07T06:36:53.058Z,100.00
2023-03-07T06:38:55.939Z,100.00
2023-03-07T06:40:59.470Z,100.00
2023-03-07T06:43:03.147Z,100.00
2023-03-07T06:45:07.093Z,100.00
2023-03-07T06:47:10.364Z,100.00
2023-03-07T06:49:13.520Z,100.00
2023-03-07T06:51:17.625Z,100.00
2023-03-07T06:53:21.543Z,100.00
2023-03-07T06:55:24.531Z,100.00
2023-03-07T06:57:27.294Z,100.00
2023-03-07T06:59:30.084Z,100.00
2023-03-07T07:01:32.855Z,100.00
2023-03-07T07:03:36.197Z,100.00
2023-03-07T07:05:39.103Z,100.00
2023-03-07T07:07:43.185Z,99.82
2023-03-07T07:09:45.940Z,98.51
2023-03-07T07:11:48.745Z,97.85
2023-03-07T07:13:51.905Z,96.81
2023-03-07T07:15:56.526Z,97.63
2023-03-07T07:18:00.952Z,97.50
2023-03-07T07:20:05.327Z,95.60
2023-03-07T07:22:11.858Z,95.64
2023-03-07T07:24:15.957Z,94.77
2023-03-07T07:26:19.290Z,94.61
2023-03-07T07:28:22.239Z,94.47
2023-03-07T07:30:25.137Z,93.43
2023-03-07T07:32:28.528Z,93.73
2023-03-07T07:34:31.634Z,93.39
2023-03-07T07:36:35.048Z,92.52
2023-03-07T07:38:38.885Z,91.52
2023-03-07T07:40:43.053Z,92.20
2023-03-07T07:42:46.647Z,92.21
2023-03-07T07:45:01.704Z,91.56
2023-03-07T07:47:05.665Z,91.01
2023-03-07T07:49:08.830Z,90.61
2023-03-07T07:51:11.844Z,90.44
2023-03-07T07:53:16.967Z,90.60
2023-03-07T07:55:20.517Z,89.74
2023-03-07T07:57:25.379Z,90.41
2023-03-07T07:59:28.458Z,91.25
2023-03-07T08:01:31.317Z,91.00
2023-03-07T08:03:34.118Z,89.86
2023-03-07T08:05:36.866Z,88.08
2023-03-07T08:07:39.599Z,87.02
2023-03-07T08:09:42.359Z,87.34
2023-03-07T08:11:45.240Z,86.70
2023-03-07T08:13:49.676Z,85.67
2023-03-07T08:15:52.445Z,87.01
2023-03-07T08:17:55.231Z,85.96
2023-03-07T08:20:01.695Z,85.71
2023-03-07T08:22:04.715Z,84.11
2023-03-07T08:24:07.826Z,86.59
2023-03-07T08:26:13.211Z,87.26
2023-03-07T08:28:15.861Z,87.17
2023-03-07T08:30:20.613Z,87.53
2023-03-07T08:32:23.507Z,85.31
2023-03-07T08:34:26.284Z,84.58
2023-03-07T08:36:29.018Z,82.40
2023-03-07T08:38:32.084Z,81.76
2023-03-07T08:40:34.742Z,81.24
2023-03-07T08:42:37.478Z,80.54
2023-03-07T08:44:40.154Z,83.09
2023-03-07T08:46:44.166Z,83.07
2023-03-07T08:48:47.262Z,83.31
2023-03-07T08:50:50.028Z,81.32
2023-03-07T08:52:52.716Z,82.60
2023-03-07T08:54:55.423Z,81.81
2023-03-07T08:56:58.120Z,81.51
2023-03-07T08:59:00.768Z,82.56
2023-03-07T09:01:04.063Z,82.49
2023-03-07T09:03:08.636Z,82.23
2023-03-07T09:05:11.644Z,81.97
2023-03-07T09:07:14.410Z,82.81
2023-03-07T09:09:17.141Z,84.45
2023-03-07T09:11:21.623Z,84.42
2023-03-07T09:13:24.386Z,82.96
2023-03-07T09:15:27.964Z,82.47
2023-03-07T09:17:31.207Z,83.39
2023-03-07T09:19:35.619Z,83.18
2023-03-07T09:21:38.384Z,82.64
2023-03-07T09:23:41.232Z,82.16
2023-03-07T09:25:44.418Z,81.65
2023-03-07T09:27:47.239Z,83.41
2023-03-07T09:29:49.985Z,81.76
2023-03-07T09:31:52.911Z,79.86
2023-03-07T09:33:55.679Z,80.50
2023-03-07T09:35:59.786Z,79.90
2023-03-07T09:38:02.823Z,80.15
2023-03-07T09:40:08.236Z,78.92
2023-03-07T09:42:19.123Z,81.80
2023-03-07T09:44:33.292Z,84.56
2023-03-07T09:47:29.860Z,80.59
2023-03-07T09:49:39.466Z,78.44
2023-03-07T09:51:46.317Z,78.39
2023-03-07T09:53:54.134Z,79.00
2023-03-07T09:56:00.018Z,80.66
2023-03-07T09:58:08.949Z,79.80
2023-03-07T10:00:22.587Z,77.08
2023-03-07T10:02:29.960Z,76.52
2023-03-07T10:04:43.575Z,77.12
2023-03-07T10:06:53.369Z,78.04
2023-03-07T10:08:57.165Z,75.53
2023-03-07T10:11:18.723Z,78.65
2023-03-07T10:13:33.990Z,80.50
2023-03-07T10:15:49.066Z,78.18
2023-03-07T10:18:14.816Z,78.15
2023-03-07T10:20:25.815Z,76.97
2023-03-07T10:22:38.849Z,73.86
2023-03-07T10:25:04.251Z,73.50
2023-03-07T10:27:08.849Z,71.03
2023-03-07T10:29:16.021Z,72.65
2023-03-07T10:31:23.879Z,73.67
2023-03-07T10:33:27.411Z,73.12
2023-03-07T10:35:42.270Z,69.86
2023-03-07T10:37:51.263Z,70.37
2023-03-07T10:39:56.227Z,70.42
2023-03-07T10:41:59.014Z,67.10
2023-03-07T10:44:01.821Z,66.79
2023-03-07T10:46:24.656Z,65.18
2023-03-07T10:48:29.273Z,65.27
2023-03-07T10:50:39.279Z,65.65
2023-03-07T10:52:48.546Z,65.20
2023-03-07T10:54:52.676Z,68.31
2023-03-07T10:57:07.452Z,69.33
2023-03-07T10:59:11.455Z,66.99
2023-03-07T11:01:20.469Z,62.69
2023-03-07T11:03:26.984Z,65.45
2023-03-07T11:05:33.236Z,63.42
2023-03-07T11:07:37.411Z,66.08
2023-03-07T11:09:48.321Z,65.95
2023-03-07T11:11:55.152Z,63.70
2023-03-07T11:14:07.226Z,65.00
2023-03-07T11:16:17.446Z,66.21
2023-03-07T11:18:31.388Z,66.52
2023-03-07T11:20:49.654Z,66.49
2023-03-07T11:23:14.277Z,66.37
2023-03-07T11:25:20.357Z,66.01
2023-03-07T11:27:31.616Z,66.24
2023-03-07T11:29:34.903Z,65.88
2023-03-07T11:31:48.132Z,65.94
2023-03-07T11:33:59.622Z,65.66
2023-03-07T11:36:07.932Z,66.42
2023-03-07T11:38:20.471Z,68.29
2023-03-07T11:40:25.901Z,66.38
2023-03-07T11:42:34.857Z,66.29
2023-03-07T11:44:46.265Z,66.21
2023-03-07T11:47:14.563Z,63.78
2023-03-07T11:49:33.066Z,64.13
2023-03-07T11:51:47.534Z,64.04
2023-03-07T11:53:58.507Z,64.43
2023-03-07T11:56:19.120Z,66.22
2023-03-07T11:58:44.473Z,64.74
2023-03-07T12:01:02.141Z,63.90
2023-03-07T12:03:44.046Z,63.50
2023-03-07T12:06:06.596Z,64.88
2023-03-07T12:08:29.492Z,64.62
2023-03-07T12:10:45.729Z,64.74
2023-03-07T12:13:02.760Z,60.57
2023-03-07T12:15:25.458Z,56.53
2023-03-07T12:17:40.050Z,54.58
2023-03-07T12:20:11.933Z,57.73
2023-03-07T12:22:27.393Z,55.40
2023-03-07T12:24:36.635Z,52.90
2023-03-07T12:26:51.436Z,51.83
2023-03-07T12:28:59.634Z,52.02
2023-03-07T12:31:11.257Z,53.15
2023-03-07T12:33:22.494Z,51.38
2023-03-07T12:35:30.998Z,50.87
2023-03-07T12:37:40.754Z,49.99
2023-03-07T12:39:52.311Z,51.51
2023-03-07T12:42:01.708Z,50.09
2023-03-07T12:44:08.474Z,48.04
2023-03-07T12:46:21.238Z,47.29
2023-03-07T12:48:34.304Z,46.86
2023-03-07T12:50:48.499Z,46.74
2023-03-07T12:52:55.380Z,49.80
2023-03-07T12:55:02.233Z,48.30
2023-03-07T12:57:12.118Z,49.16
2023-03-07T12:59:16.795Z,50.69
2023-03-07T13:01:27.626Z,51.28
2023-03-07T13:03:38.494Z,53.01
2023-03-07T13:05:44.427Z,55.11
2023-03-07T13:07:48.756Z,54.44
2023-03-07T13:09:53.892Z,54.77
2023-03-07T13:12:24.244Z,57.23
2023-03-07T13:14:39.487Z,56.67
2023-03-07T13:16:45.560Z,55.92
2023-03-07T13:18:48.364Z,56.39
2023-03-07T13:21:23.414Z,52.51
2023-03-07T13:23:29.831Z,49.75
2023-03-07T13:25:57.739Z,52.82
2023-03-07T13:28:01.496Z,53.10
2023-03-07T13:30:06.819Z,51.37
2023-03-07T13:32:51.792Z,51.64
2023-03-07T13:34:54.693Z,51.80
2023-03-07T13:36:57.450Z,51.86
2023-03-07T13:39:01.264Z,49.94
2023-03-07T13:41:05.609Z,49.69
2023-03-07T13:43:35.347Z,45.78
2023-03-07T13:45:52.852Z,45.52
2023-03-07T13:47:56.927Z,46.42
2023-03-07T13:49:59.653Z,47.76
2023-03-07T13:52:27.109Z,47.12
2023-03-07T13:54:30.071Z,45.26
2023-03-07T13:56:37.489Z,43.83
2023-03-07T13:58:47.474Z,44.04
2023-03-07T14:00:56.941Z,44.17
2023-03-07T14:03:02.341Z,44.76
2023-03-07T14:05:05.923Z,44.81
2023-03-07T14:07:20.697Z,43.71
2023-03-07T14:09:28.307Z,43.47
2023-03-07T14:11:43.431Z,44.43
2023-03-07T14:14:02.190Z,43.09
2023-03-07T14:16:16.769Z,42.26
2023-03-07T14:18:31.857Z,41.81
2023-03-07T14:20:49.025Z,43.40
2023-03-07T14:23:07.999Z,42.83
2023-03-07T14:25:18.211Z,43.10
2023-03-07T14:27:21.037Z,42.46
2023-03-07T14:29:26.209Z,44.08
2023-03-07T14:31:31.060Z,45.19
2023-03-07T14:33:37.005Z,44.03
2023-03-07T14:35:42.135Z,43.01
2023-03-07T14:37:46.025Z,42.80
2023-03-07T14:40:13.123Z,44.39
2023-03-07T14:42:24.264Z,44.09
2023-03-07T14:44:53.391Z,42.73
2023-03-07T14:47:06.085Z,42.77
2023-03-07T14:49:21.561Z,42.42
2023-03-07T14:51:27.734Z,43.36
2023-03-07T14:53:34.041Z,43.35
2023-03-07T14:55:39.686Z,42.50
2023-03-07T14:57:46.145Z,41.27
2023-03-07T15:00:04.574Z,41.31
2023-03-07T15:02:18.785Z,40.97
2023-03-07T15:04:27.933Z,41.56
2023-03-07T15:06:31.910Z,42.14
2023-03-07T15:08:38.351Z,41.64
2023-03-07T15:10:45.971Z,40.67
2023-03-07T15:12:52.730Z,41.48
2023-03-07T15:14:59.194Z,42.16
2023-03-07T15:17:05.950Z,43.22
2023-03-07T15:19:16.273Z,42.11
2023-03-07T15:21:22.870Z,40.82
2023-03-07T15:23:29.117Z,41.68
2023-03-07T15:25:33.128Z,39.45
2023-03-07T15:27:35.919Z,43.08
2023-03-07T15:29:39.461Z,43.97
2023-03-07T15:31:54.433Z,42.36
2023-03-07T15:34:11.862Z,41.40
2023-03-07T15:36:25.519Z,41.52
2023-03-07T15:38:29.311Z,41.19
2023-03-07T15:40:33.298Z,41.72
2023-03-07T15:42:49.654Z,40.02
2023-03-07T15:44:56.991Z,41.95
2023-03-07T15:47:04.216Z,40.25
2023-03-07T15:49:07.683Z,40.48
2023-03-07T15:51:15.710Z,39.26
2023-03-07T15:53:27.491Z,38.94
2023-03-07T15:55:32.383Z,39.01
2023-03-07T15:57:39.349Z,38.37
2023-03-07T15:59:48.096Z,39.87
2023-03-07T16:01:50.907Z,39.97
2023-03-07T16:03:55.201Z,39.59
2023-03-07T16:05:59.660Z,41.81
2023-03-07T16:08:03.042Z,41.16
2023-03-07T16:10:08.001Z,42.70
2023-03-07T16:12:14.735Z,43.01
2023-03-07T16:14:23.749Z,41.66
2023-03-07T16:16:30.508Z,40.27
2023-03-07T16:18:34.523Z,39.63
2023-03-07T16:20:37.290Z,42.11
2023-03-07T16:22:40.075Z,42.40
2023-03-07T16:24:43.033Z,40.44
2023-03-07T16:26:48.178Z,41.49
2023-03-07T16:28:51.436Z,42.41
2023-03-07T16:30:54.184Z,44.70
2023-03-07T16:32:57.104Z,46.83
2023-03-07T16:34:59.827Z,48.83
2023-03-07T16:37:02.608Z,48.60
2023-03-07T16:39:05.395Z,49.83
2023-03-07T16:41:16.679Z,49.23
2023-03-07T16:43:32.176Z,49.71
2023-03-07T16:45:34.999Z,49.50
2023-03-07T16:47:37.808Z,51.29
2023-03-07T16:49:40.583Z,52.19
2023-03-07T16:51:43.415Z,53.45
2023-03-07T16:53:46.754Z,56.00
2023-03-07T16:55:49.962Z,56.30
2023-03-07T16:57:55.225Z,57.21
2023-03-07T16:59:59.349Z,56.68
2023-03-07T17:02:03.287Z,57.22
2023-03-07T17:04:06.321Z,58.94
2023-03-07T17:06:14.187Z,59.15
2023-03-07T17:08:17.212Z,60.81
2023-03-07T17:10:20.732Z,61.05
2023-03-07T17:12:24.804Z,61.90
2023-03-07T17:14:27.607Z,61.40
2023-03-07T17:16:32.933Z,62.13
2023-03-07T17:18:36.013Z,62.53
2023-03-07T17:20:38.755Z,63.80
2023-03-07T17:22:41.797Z,63.37
2023-03-07T17:24:44.508Z,64.17
2023-03-07T17:26:48.590Z,62.91
2023-03-07T17:28:52.023Z,64.07
2023-03-07T17:30:54.838Z,63.66
2023-03-07T17:32:59.104Z,64.24
2023-03-07T17:35:02.045Z,64.75
2023-03-07T17:37:05.298Z,65.23
2023-03-07T17:39:09.466Z,66.32
2023-03-07T17:41:12.275Z,66.40
2023-03-07T17:43:15.088Z,66.30
2023-03-07T17:45:18.288Z,66.90
2023-03-07T17:47:21.029Z,67.58
2023-03-07T17:49:27.072Z,67.99
2023-03-07T17:51:29.800Z,68.70
2023-03-07T17:53:32.505Z,68.20
2023-03-07T17:55:35.307Z,67.92
2023-03-07T17:57:38.210Z,67.66
2023-03-07T17:59:41.098Z,67.62
2023-03-07T18:01:43.931Z,66.02
2023-03-07T18:03:47.158Z,66.09
2023-03-07T18:05:51.292Z,66.19
2023-03-07T18:07:55.213Z,67.71
2023-03-07T18:10:07.484Z,68.39
2023-03-07T18:12:11.318Z,70.71
2023-03-07T18:14:14.157Z,71.74
2023-03-07T18:16:17.020Z,72.48
2023-03-07T18:18:19.761Z,72.80
2023-03-07T18:20:23.214Z,72.14
2023-03-07T18:22:27.408Z,71.39
2023-03-07T18:24:30.347Z,71.51
2023-03-07T18:26:33.134Z,70.57
2023-03-07T18:28:36.719Z,70.49
2023-03-07T18:30:39.833Z,69.88
2023-03-07T18:32:42.836Z,70.61
2023-03-07T18:34:46.653Z,70.97
2023-03-07T18:36:51.664Z,70.61
2023-03-07T18:38:55.894Z,69.89
2023-03-07T18:41:04.761Z,70.44
2023-03-07T18:43:07.684Z,70.30
2023-03-07T18:45:11.805Z,70.81
2023-03-07T18:47:14.572Z,71.08
2023-03-07T18:49:17.778Z,71.03
2023-03-07T18:51:25.017Z,71.24
2023-03-07T18:53:28.383Z,71.65
2023-03-07T18:55:34.561Z,71.62
2023-03-07T18:57:37.292Z,76.71
2023-03-07T18:59:40.043Z,78.74
2023-03-07T19:01:42.896Z,78.57
2023-03-07T19:03:47.546Z,79.01
2023-03-07T19:05:51.173Z,77.39
2023-03-07T19:07:53.923Z,77.26
2023-03-07T19:09:56.745Z,77.27
2023-03-07T19:12:00.793Z,78.42
2023-03-07T19:14:03.559Z,77.59
2023-03-07T19:16:08.450Z,77.23
2023-03-07T19:18:11.424Z,77.39
2023-03-07T19:20:14.297Z,77.54
2023-03-07T19:22:21.486Z,76.93
2023-03-07T19:24:24.309Z,75.45
2023-03-07T19:26:27.396Z,76.48
2023-03-07T19:28:33.172Z,76.70
2023-03-07T19:30:37.028Z,77.12
2023-03-07T19:32:40.213Z,77.30
2023-03-07T19:34:42.967Z,77.25
2023-03-07T19:36:45.727Z,75.79
2023-03-07T19:38:49.313Z,77.21
2023-03-07T19:40:52.045Z,77.41
2023-03-07T19:42:54.854Z,76.19
2023-03-07T19:44:59.154Z,75.51
2023-03-07T19:47:01.845Z,74.81
2023-03-07T19:49:04.584Z,76.60
2023-03-07T19:51:13.997Z,76.33
2023-03-07T19:53:17.250Z,75.83
2023-03-07T19:55:20.050Z,73.77
2023-03-07T19:57:23.618Z,73.03
2023-03-07T19:59:26.373Z,71.81
2023-03-07T20:01:30.828Z,70.92
2023-03-07T20:03:33.599Z,69.09
2023-03-07T20:05:41.466Z,71.42
2023-03-07T20:07:44.271Z,71.79
2023-03-07T20:09:46.994Z,71.75
2023-03-07T20:11:49.883Z,70.95
2023-03-07T20:13:52.637Z,69.75
2023-03-07T20:15:55.549Z,70.70
2023-03-07T20:18:01.804Z,70.23
2023-03-07T20:20:07.414Z,69.99
2023-03-07T20:22:10.222Z,69.93
2023-03-07T20:24:12.961Z,68.30
2023-03-07T20:26:18.068Z,69.73
2023-03-07T20:28:20.805Z,68.75
2023-03-07T20:30:23.874Z,68.32
2023-03-07T20:32:26.864Z,67.64
2023-03-07T20:34:31.121Z,68.33
2023-03-07T20:36:35.530Z,68.17
2023-03-07T20:38:38.680Z,67.52
2023-03-07T20:40:41.377Z,67.05
2023-03-07T20:42:44.093Z,67.06
2023-03-07T20:44:46.854Z,68.21
2023-03-07T20:46:49.598Z,67.64
2023-03-07T20:48:55.156Z,67.99
2023-03-07T20:51:05.223Z,68.44
2023-03-07T20:53:08.454Z,68.51
2023-03-07T20:55:11.542Z,68.10
2023-03-07T20:57:14.277Z,68.55
2023-03-07T20:59:18.766Z,67.85
2023-03-07T21:01:23.332Z,67.97
2023-03-07T21:03:26.532Z,68.41
2023-03-07T21:05:29.938Z,68.55
2023-03-07T21:07:33.982Z,68.48
2023-03-07T21:09:36.858Z,67.80
2023-03-07T21:11:44.799Z,68.07
2023-03-07T21:13:49.140Z,68.75
2023-03-07T21:15:54.685Z,68.54
2023-03-07T21:17:57.415Z,68.32
2023-03-07T21:20:00.285Z,68.62
2023-03-07T21:22:03.027Z,68.54
2023-03-07T21:24:07.935Z,68.02
2023-03-07T21:26:12.745Z,68.25
2023-03-07T21:28:15.500Z,68.30
2023-03-07T21:30:18.426Z,68.38
2023-03-07T21:32:21.342Z,68.43
2023-03-07T21:34:24.130Z,68.89
2023-03-07T21:36:29.160Z,69.04
2023-03-07T21:38:32.102Z,69.04
2023-03-07T21:40:36.190Z,70.19
2023-03-07T21:42:38.994Z,69.96
2023-03-07T21:44:41.747Z,70.22
2023-03-07T21:46:45.148Z,69.79
2023-03-07T21:48:48.161Z,70.19
2023-03-07T21:50:55.313Z,70.11
2023-03-07T21:52:58.405Z,69.92
2023-03-07T21:55:01.146Z,70.12
2023-03-07T21:57:05.331Z,70.12
2023-03-07T21:59:08.079Z,70.60
2023-03-07T22:01:12.998Z,70.46
2023-03-07T22:03:16.474Z,70.90
2023-03-07T22:05:19.292Z,70.74
2023-03-07T22:07:21.992Z,70.53
2023-03-07T22:09:24.701Z,71.68
2023-03-07T22:11:27.470Z,71.50
2023-03-07T22:13:33.614Z,71.57
2023-03-07T22:15:36.439Z,72.04
2023-03-07T22:17:39.194Z,72.03
2023-03-07T22:19:41.878Z,73.51
2023-03-07T22:21:44.577Z,73.99
2023-03-07T22:23:47.320Z,73.06
2023-03-07T22:25:50.102Z,72.52
2023-03-07T22:27:52.837Z,72.96
2023-03-07T22:29:56.856Z,73.05
2023-03-07T22:31:59.634Z,74.54
2023-03-07T22:34:02.421Z,74.53
2023-03-07T22:36:07.432Z,74.16
2023-03-07T22:38:10.324Z,73.72
2023-03-07T22:40:14.018Z,73.83
2023-03-07T22:42:16.766Z,75.02
2023-03-07T22:44:20.165Z,73.87
2023-03-07T22:46:24.496Z,73.47
2023-03-07T22:48:27.389Z,73.70
2023-03-07T22:50:30.747Z,74.14
2023-03-07T22:52:33.521Z,74.92
2023-03-07T22:54:39.372Z,73.92
2023-03-07T22:56:42.152Z,73.94
2023-03-07T22:58:45.086Z,74.09
2023-03-07T23:00:47.919Z,74.18
2023-03-07T23:02:52.092Z,74.49
2023-03-07T23:04:55.007Z,75.14
2023-03-07T23:06:57.866Z,75.60
2023-03-07T23:09:02.037Z,75.61
2023-03-07T23:11:06.256Z,76.01
2023-03-07T23:13:09.000Z,75.36
2023-03-07T23:15:12.588Z,76.04
2023-03-07T23:17:15.346Z,76.52
2023-03-07T23:19:19.506Z,76.65
2023-03-07T23:21:24.819Z,76.82
2023-03-07T23:23:27.543Z,77.74
2023-03-07T23:25:30.311Z,77.64
2023-03-07T23:27:33.700Z,77.27
2023-03-07T23:29:36.541Z,77.30
2023-03-07T23:31:41.004Z,78.31
2023-03-07T23:33:43.774Z,78.57
2023-03-07T23:35:48.694Z,78.85
2023-03-07T23:37:51.455Z,78.93
2023-03-07T23:39:54.327Z,79.36
2023-03-07T23:41:57.147Z,81.16
2023-03-07T23:44:01.836Z,83.33
2023-03-07T23:46:04.814Z,82.35
2023-03-07T23:48:07.650Z,83.08
2023-03-07T23:50:11.817Z,82.05
2023-03-07T23:52:15.832Z,82.65
2023-03-07T23:54:18.552Z,81.58
2023-03-07T23:56:21.365Z,81.12
2023-03-07T23:58:24.177Z,82.17
